Overview Statistics Trail Chart Weather Telemetry Raw packets
 

This is the latest recevied weather packets stored in our database for station/object SQ9RHX-11. If no packets are shown the sender has not sent any weather packets the latest 10 day(s).

<< 12 13 14 15 16 >>
Time Temp. Humidity Pressure Rain* Wind** Luminosity Snow
1787852359 22.22° C 40% 1020.5 hPa - - - -
1787850559 23.89° C 38% 1020.3 hPa - - - -
1787848761 25.56° C 35% 1020.6 hPa - - - -
1787846961 26.67° C 34% 1020.6 hPa - - - -
1787845162 27.22° C 33% 1020.9 hPa - - - -
1787841564 28.33° C 31% 1020.8 hPa - - - -
1787839764 28.33° C 32% 1020.9 hPa - - - -
1787837964 29.44° C 30% 1021 hPa - - - -
1787836164 30.56° C 30% 1021.3 hPa - - - -
1787834365 27.22° C 33% 1021.4 hPa - - - -
1787832565 27.22° C 34% 1021.7 hPa - - - -
1787830765 27.22° C 36% 1022 hPa - - - -
1787828965 26.67° C 37% 1022.3 hPa - - - -
1787825370 25.56° C 38% 1022.6 hPa - - - -
1787823567 25° C 41% 1022.8 hPa - - - -
1787818169 21.67° C 53% 1023.3 hPa - - - -
1787814570 19.44° C 58% 1023.2 hPa - - - -
1787810971 17.22° C 66% 1023.1 hPa - - - -
1787809170 15.56° C 73% 1023.1 hPa - - - -
1787807371 12.78° C 81% 1022.9 hPa - - - -
1787805572 10.56° C 82% 1022.8 hPa - - - -
1787801974 10.56° C 82% 1022.7 hPa - - - -
1787800174 10.56° C 81% 1022.8 hPa - - - -
1787796576 11.67° C 79% 1022.6 hPa - - - -
1787794776 11.67° C 78% 1022.6 hPa - - - -

* Rain since midnight (hover to see other rain measurements)
** Current wind speed in m/s (hover to see current wind gust speed)